createdAt,value
2018-11-06T00:00:21.871Z,38.20
2018-11-06T00:02:56.443Z,36.50
2018-11-06T00:05:25.655Z,37.97
2018-11-06T00:07:55.470Z,36.47
2018-11-06T00:10:24.297Z,37.17
2018-11-06T00:12:52.944Z,36.33
2018-11-06T00:15:21.870Z,34.47
2018-11-06T00:17:50.560Z,35.80
2018-11-06T00:20:19.182Z,34.67
2018-11-06T00:22:47.770Z,33.60
2018-11-06T00:25:16.307Z,39.37
2018-11-06T00:27:44.919Z,33.77
2018-11-06T00:30:14.448Z,35.77
2018-11-06T00:32:43.393Z,36.60
2018-11-06T00:35:16.453Z,36.17
2018-11-06T00:37:46.037Z,38.20
2018-11-06T00:40:14.675Z,38.87
2018-11-06T00:42:43.480Z,37.40
2018-11-06T00:45:13.514Z,33.57
2018-11-06T00:47:43.484Z,34.77
2018-11-06T00:50:13.087Z,36.13
2018-11-06T00:52:42.653Z,34.80
2018-11-06T00:55:11.484Z,36.37
2018-11-06T00:57:41.642Z,36.70
2018-11-06T01:00:13.872Z,35.13
2018-11-06T01:02:42.439Z,35.30
2018-11-06T01:05:13.183Z,33.47
2018-11-06T01:07:43.444Z,35.63
2018-11-06T01:10:12.070Z,33.97
2018-11-06T01:12:40.991Z,35.10
2018-11-06T01:15:12.413Z,34.77
2018-11-06T01:17:41.545Z,35.27
2018-11-06T01:20:12.500Z,33.70
2018-11-06T01:22:41.691Z,35.40
2018-11-06T01:25:11.406Z,35.03
2018-11-06T01:27:40.067Z,35.30
2018-11-06T01:30:11.690Z,34.77
2018-11-06T01:32:40.423Z,31.10
2018-11-06T01:35:10.640Z,35.60
2018-11-06T01:37:40.007Z,31.67
2018-11-06T01:40:10.788Z,35.33
2018-11-06T01:42:39.483Z,33.97
2018-11-06T01:45:10.291Z,32.20
2018-11-06T01:47:39.297Z,35.20
2018-11-06T01:50:09.164Z,37.40
2018-11-06T01:52:37.747Z,31.63
2018-11-06T01:55:06.947Z,32.23
2018-11-06T01:57:35.526Z,32.33
2018-11-06T02:00:04.766Z,32.73
2018-11-06T02:02:33.315Z,35.03
2018-11-06T02:05:02.070Z,38.27
2018-11-06T02:07:30.560Z,36.37
2018-11-06T02:09:59.731Z,37.63
2018-11-06T02:12:28.900Z,35.60
2018-11-06T02:14:58.284Z,34.40
2018-11-06T02:17:26.786Z,38.57
2018-11-06T02:19:56.516Z,37.50
2018-11-06T02:22:25.024Z,34.37
2018-11-06T02:24:53.510Z,36.00
2018-11-06T02:27:22.035Z,36.47
2018-11-06T02:29:51.766Z,36.50
2018-11-06T02:32:20.733Z,35.97
2018-11-06T02:34:49.822Z,36.83
2018-11-06T02:37:18.360Z,35.73
2018-11-06T02:39:46.925Z,37.70
2018-11-06T02:42:15.475Z,32.13
2018-11-06T02:44:44.647Z,41.67
2018-11-06T02:47:13.903Z,42.90
2018-11-06T02:49:42.448Z,38.07
2018-11-06T02:52:10.987Z,39.00
2018-11-06T02:54:39.559Z,38.33
2018-11-06T02:57:08.084Z,38.23
2018-11-06T02:59:36.682Z,38.00
2018-11-06T03:02:05.732Z,44.13
2018-11-06T03:04:34.246Z,36.77
2018-11-06T03:07:02.783Z,35.70
2018-11-06T03:09:31.589Z,37.43
2018-11-06T03:12:00.200Z,41.47
2018-11-06T03:14:28.710Z,43.10
2018-11-06T03:16:57.354Z,44.57
2018-11-06T03:19:25.768Z,48.37
2018-11-06T03:21:54.327Z,40.77
2018-11-06T03:24:23.578Z,46.77
2018-11-06T03:26:52.233Z,53.60
2018-11-06T03:29:21.099Z,50.60
2018-11-06T03:31:49.706Z,49.33
2018-11-06T03:34:18.329Z,48.77
2018-11-06T03:36:46.857Z,51.03
2018-11-06T03:39:15.430Z,44.67
2018-11-06T03:41:44.558Z,39.93
2018-11-06T03:44:13.152Z,44.17
2018-11-06T03:46:41.677Z,42.07
2018-11-06T03:49:10.163Z,43.77
2018-11-06T03:51:38.871Z,47.20
2018-11-06T03:54:07.357Z,44.73
2018-11-06T03:56:36.547Z,42.67
2018-11-06T03:59:06.087Z,42.37
2018-11-06T04:01:34.663Z,44.80
2018-11-06T04:04:03.302Z,45.03
2018-11-06T04:06:31.873Z,46.17
2018-11-06T04:09:00.414Z,43.83
2018-11-06T04:11:29.391Z,40.63
2018-11-06T04:13:57.926Z,45.07
2018-11-06T04:16:26.473Z,42.70
2018-11-06T04:18:55.026Z,48.33
2018-11-06T04:21:28.734Z,49.47
2018-11-06T04:23:57.284Z,43.30
2018-11-06T04:26:25.946Z,45.47
2018-11-06T04:28:54.504Z,46.70
2018-11-06T04:31:23.822Z,41.13
2018-11-06T04:33:52.841Z,42.83
2018-11-06T04:36:21.967Z,41.17
2018-11-06T04:38:50.568Z,39.43
2018-11-06T04:41:19.291Z,45.43
2018-11-06T04:43:47.797Z,45.47
2018-11-06T04:46:18.443Z,45.50
2018-11-06T04:48:47.012Z,42.03
2018-11-06T04:51:15.523Z,40.93
2018-11-06T04:53:44.111Z,41.37
2018-11-06T04:56:12.628Z,39.50
2018-11-06T04:58:41.289Z,45.00
2018-11-06T05:01:09.849Z,44.10
2018-11-06T05:03:43.567Z,42.23
2018-11-06T05:06:12.039Z,46.27
2018-11-06T05:08:41.148Z,47.33
2018-11-06T05:11:09.841Z,42.73
2018-11-06T05:13:38.591Z,43.13
2018-11-06T05:16:07.091Z,42.13
2018-11-06T05:18:35.782Z,41.77
2018-11-06T05:21:05.075Z,42.70
2018-11-06T05:23:34.275Z,41.07
2018-11-06T05:26:02.932Z,36.63
2018-11-06T05:28:31.454Z,36.03
2018-11-06T05:31:00.166Z,39.43
2018-11-06T05:33:28.682Z,37.00
2018-11-06T05:35:57.298Z,37.50
2018-11-06T05:38:25.982Z,37.50
2018-11-06T05:40:56.976Z,38.70
2018-11-06T05:43:26.197Z,38.53
2018-11-06T05:45:55.419Z,40.70
2018-11-06T05:48:23.950Z,43.97
2018-11-06T05:50:52.543Z,40.13
2018-11-06T05:53:21.197Z,38.20
2018-11-06T05:55:49.952Z,34.83
2018-11-06T05:58:19.657Z,36.67
2018-11-06T06:00:48.418Z,40.43
2018-11-06T06:03:17.080Z,38.67
2018-11-06T06:05:45.598Z,38.13
2018-11-06T06:08:14.203Z,36.07
2018-11-06T06:10:43.419Z,42.37
2018-11-06T06:13:12.027Z,39.17
2018-11-06T06:15:40.506Z,38.70
2018-11-06T06:18:09.045Z,37.23
2018-11-06T06:20:37.641Z,41.70
2018-11-06T06:23:06.488Z,38.43
2018-11-06T06:25:35.929Z,37.40
2018-11-06T06:28:04.596Z,43.80
2018-11-06T06:30:33.147Z,48.33
2018-11-06T06:33:01.805Z,44.27
2018-11-06T06:35:30.419Z,39.10
2018-11-06T06:37:59.743Z,59.73
2018-11-06T06:40:28.300Z,71.60
2018-11-06T06:42:56.859Z,74.63
2018-11-06T06:45:26.378Z,48.03
2018-11-06T06:47:55.749Z,34.37
2018-11-06T06:50:24.255Z,33.70
2018-11-06T06:52:53.398Z,33.80
2018-11-06T06:55:22.156Z,33.80
2018-11-06T06:57:50.640Z,33.10
2018-11-06T07:00:20.516Z,29.60
2018-11-06T07:02:49.134Z,31.57
2018-11-06T07:05:20.064Z,33.97
2018-11-06T07:07:48.518Z,32.03
2018-11-06T07:10:19.186Z,31.07
2018-11-06T07:12:48.366Z,30.80
2018-11-06T07:15:18.056Z,31.37
2018-11-06T07:17:47.531Z,36.27
2018-11-06T07:20:20.183Z,34.03
2018-11-06T07:22:48.738Z,39.37
2018-11-06T07:25:17.247Z,32.37
2018-11-06T07:27:46.827Z,34.37
2018-11-06T07:30:17.954Z,33.23
2018-11-06T07:32:47.484Z,33.40
2018-11-06T07:35:17.418Z,42.67
2018-11-06T07:37:46.192Z,33.17
2018-11-06T07:40:17.227Z,37.00
2018-11-06T07:42:45.694Z,36.93
2018-11-06T07:45:17.152Z,27.27
2018-11-06T07:47:46.411Z,26.37
2018-11-06T07:50:15.454Z,20.03
2018-11-06T07:52:44.302Z,18.53
2018-11-06T07:55:17.149Z,20.80
2018-11-06T07:57:45.660Z,18.77
2018-11-06T08:00:18.462Z,19.43
2018-11-06T08:02:47.932Z,18.83
2018-11-06T08:05:17.448Z,18.77
2018-11-06T08:07:46.758Z,20.73
2018-11-06T08:10:15.219Z,17.70
2018-11-06T08:12:45.001Z,18.90
2018-11-06T08:15:14.218Z,19.17
2018-11-06T08:17:43.546Z,19.77
2018-11-06T08:20:12.142Z,15.77
2018-11-06T08:22:40.750Z,16.43
2018-11-06T08:25:10.877Z,19.33
2018-11-06T08:27:40.876Z,17.47
2018-11-06T08:30:10.404Z,19.63
2018-11-06T08:32:39.480Z,20.67
2018-11-06T08:35:10.196Z,21.57
2018-11-06T08:37:38.780Z,17.77
2018-11-06T08:40:09.254Z,17.67
2018-11-06T08:42:37.868Z,19.37
2018-11-06T08:45:07.736Z,18.93
2018-11-06T08:47:36.254Z,20.10
2018-11-06T08:50:05.273Z,17.17
2018-11-06T08:52:34.895Z,19.30
2018-11-06T08:55:03.630Z,18.57
2018-11-06T08:57:32.087Z,18.57
2018-11-06T09:00:00.672Z,18.03
2018-11-06T09:02:29.301Z,20.13
2018-11-06T09:04:57.915Z,20.73
2018-11-06T09:07:26.377Z,20.80
2018-11-06T09:09:54.991Z,17.93
2018-11-06T09:12:24.186Z,19.10
2018-11-06T09:14:53.278Z,18.87
2018-11-06T09:17:21.830Z,19.10
2018-11-06T09:19:50.552Z,18.90
2018-11-06T09:22:19.160Z,19.97
2018-11-06T09:24:47.755Z,22.80
2018-11-06T09:27:16.287Z,20.77
2018-11-06T09:29:44.963Z,20.20
2018-11-06T09:32:13.476Z,22.27
2018-11-06T09:34:41.990Z,23.93
2018-11-06T09:37:10.544Z,24.53
2018-11-06T09:39:39.119Z,22.70
2018-11-06T09:42:07.714Z,20.40
2018-11-06T09:44:36.231Z,20.43
2018-11-06T09:47:04.793Z,21.77
2018-11-06T09:49:34.588Z,21.80
2018-11-06T09:52:03.940Z,21.17
2018-11-06T09:54:33.318Z,18.70
2018-11-06T09:57:01.881Z,21.87
2018-11-06T09:59:30.410Z,21.40
2018-11-06T10:01:58.883Z,24.53
2018-11-06T10:04:27.375Z,21.63
2018-11-06T10:06:56.102Z,19.87
2018-11-06T10:09:24.471Z,21.17
2018-11-06T10:11:53.142Z,21.93
2018-11-06T10:14:21.698Z,23.00
2018-11-06T10:16:51.148Z,22.27
2018-11-06T10:19:20.448Z,24.63
2018-11-06T10:21:49.166Z,21.10
2018-11-06T10:24:17.662Z,24.17
2018-11-06T10:26:46.240Z,21.27
2018-11-06T10:29:14.760Z,19.37
2018-11-06T10:31:43.292Z,20.23
2018-11-06T10:34:12.054Z,19.43
2018-11-06T10:36:40.551Z,21.13
2018-11-06T10:39:11.475Z,16.80
2018-11-06T10:41:39.999Z,20.67
2018-11-06T10:44:09.135Z,19.37
2018-11-06T10:46:38.130Z,20.20
2018-11-06T10:49:07.674Z,18.67
2018-11-06T10:51:36.196Z,18.47
2018-11-06T10:54:04.912Z,18.17
2018-11-06T10:56:33.466Z,19.90
2018-11-06T10:59:01.995Z,19.80
2018-11-06T11:01:35.852Z,17.73
2018-11-06T11:04:09.633Z,18.60
2018-11-06T11:06:38.326Z,18.60
2018-11-06T11:09:08.202Z,22.30
2018-11-06T11:11:37.506Z,19.17
2018-11-06T11:14:06.207Z,18.20
2018-11-06T11:16:35.634Z,19.20
2018-11-06T11:19:04.493Z,18.33
2018-11-06T11:21:33.168Z,19.53
2018-11-06T11:24:02.519Z,19.10
2018-11-06T11:26:31.204Z,19.67
2018-11-06T11:29:00.783Z,15.63
2018-11-06T11:31:29.589Z,17.43
2018-11-06T11:33:58.345Z,16.37
2018-11-06T11:36:26.938Z,18.47
2018-11-06T11:38:55.598Z,18.97
2018-11-06T11:41:24.889Z,18.00
2018-11-06T11:43:53.773Z,17.13
2018-11-06T11:46:22.360Z,17.37
2018-11-06T11:48:51.075Z,15.60
2018-11-06T11:51:20.399Z,17.50
2018-11-06T11:53:49.030Z,16.87
2018-11-06T11:56:17.671Z,17.50
2018-11-06T11:58:46.329Z,14.57
2018-11-06T12:01:14.877Z,15.00
2018-11-06T12:03:43.607Z,14.30
2018-11-06T12:06:12.177Z,15.67
2018-11-06T12:08:40.784Z,15.97
2018-11-06T12:11:09.361Z,16.80
2018-11-06T12:13:38.590Z,14.57
2018-11-06T12:16:07.207Z,14.60
2018-11-06T12:18:36.765Z,12.90
2018-11-06T12:21:06.216Z,14.47
2018-11-06T12:23:34.813Z,13.67
2018-11-06T12:26:03.443Z,15.00
2018-11-06T12:28:32.127Z,15.47
2018-11-06T12:31:00.713Z,13.33
2018-11-06T12:33:29.333Z,13.33
2018-11-06T12:35:57.974Z,12.47
2018-11-06T12:38:26.561Z,15.67
2018-11-06T12:40:55.920Z,12.23
2018-11-06T12:43:25.284Z,13.27
2018-11-06T12:45:53.853Z,12.77
2018-11-06T12:48:22.635Z,12.13
2018-11-06T12:50:51.212Z,14.07
2018-11-06T12:53:20.537Z,11.43
2018-11-06T12:55:49.817Z,12.60
2018-11-06T12:58:18.398Z,13.23
2018-11-06T13:00:46.982Z,11.50
2018-11-06T13:03:15.733Z,16.47
2018-11-06T13:05:44.929Z,11.37
2018-11-06T13:08:14.455Z,10.67
2018-11-06T13:10:43.110Z,12.20
2018-11-06T13:13:11.786Z,11.27
2018-11-06T13:15:40.571Z,12.33
2018-11-06T13:18:09.056Z,12.33
2018-11-06T13:20:37.727Z,10.43
2018-11-06T13:23:06.337Z,11.40
2018-11-06T13:25:35.034Z,11.20
2018-11-06T13:28:03.603Z,11.73
2018-11-06T13:30:32.214Z,9.80
2018-11-06T13:33:02.014Z,11.13
2018-11-06T13:35:31.345Z,9.53
2018-11-06T13:38:00.653Z,12.00
2018-11-06T13:40:30.103Z,12.47
2018-11-06T13:42:59.631Z,9.23
2018-11-06T13:45:31.421Z,13.20
2018-11-06T13:48:00.432Z,8.90
2018-11-06T13:50:31.232Z,9.37
2018-11-06T13:53:00.389Z,9.87
2018-11-06T13:55:30.462Z,11.43
2018-11-06T13:58:00.120Z,9.83
2018-11-06T14:00:30.211Z,9.30
2018-11-06T14:02:58.890Z,11.00
2018-11-06T14:05:27.568Z,10.50
2018-11-06T14:07:56.178Z,9.87
2018-11-06T14:10:26.257Z,9.93
2018-11-06T14:12:59.140Z,10.40
2018-11-06T14:15:28.892Z,9.80
2018-11-06T14:17:58.216Z,10.47
2018-11-06T14:20:28.893Z,11.73
2018-11-06T14:22:59.260Z,10.13
2018-11-06T14:25:29.091Z,13.43
2018-11-06T14:27:58.892Z,10.70
2018-11-06T14:30:32.342Z,9.87
2018-11-06T14:33:03.520Z,9.47
2018-11-06T14:35:32.300Z,12.40
2018-11-06T14:38:01.100Z,10.63
2018-11-06T14:40:30.849Z,10.53
2018-11-06T14:42:59.577Z,11.80
2018-11-06T14:45:28.889Z,11.27
2018-11-06T14:47:58.550Z,10.97
2018-11-06T14:50:33.303Z,9.33
2018-11-06T14:53:06.455Z,14.83
2018-11-06T14:55:45.818Z,30.87
2018-11-06T14:58:14.794Z,23.17
2018-11-06T15:00:43.427Z,25.40
2018-11-06T15:03:12.076Z,24.73
2018-11-06T15:05:44.413Z,14.93
2018-11-06T15:08:26.629Z,17.67
2018-11-06T15:10:58.508Z,15.27
2018-11-06T15:13:30.499Z,16.17
2018-11-06T15:15:59.722Z,15.50
2018-11-06T15:18:28.656Z,15.00
2018-11-06T15:20:57.982Z,14.03
2018-11-06T15:23:30.928Z,10.23
2018-11-06T15:26:02.554Z,11.90
2018-11-06T15:28:38.590Z,11.33
2018-11-06T15:31:07.654Z,11.23
2018-11-06T15:36:31.338Z,13.23
2018-11-06T15:38:59.848Z,13.50
2018-11-06T15:41:28.373Z,12.90
2018-11-06T15:43:57.567Z,14.30
2018-11-06T15:46:26.762Z,14.03
2018-11-06T15:48:55.325Z,17.50
2018-11-06T15:51:23.822Z,14.17
2018-11-06T15:53:52.478Z,15.23
2018-11-06T15:56:21.707Z,16.07
2018-11-06T15:58:50.714Z,16.73
2018-11-06T16:01:19.236Z,17.07
2018-11-06T16:03:47.767Z,15.40
2018-11-06T16:06:17.110Z,14.10
2018-11-06T16:08:45.547Z,18.90
2018-11-06T16:11:14.155Z,20.83
2018-11-06T16:13:42.720Z,17.00
2018-11-06T16:16:11.246Z,16.43
2018-11-06T16:18:39.735Z,19.63
2018-11-06T16:21:09.027Z,17.07
2018-11-06T16:23:37.544Z,15.20
2018-11-06T16:26:06.076Z,13.80
2018-11-06T16:28:34.705Z,22.57
2018-11-06T16:31:03.217Z,13.87
2018-11-06T16:33:31.876Z,14.50
2018-11-06T16:36:00.357Z,12.20
2018-11-06T16:38:29.036Z,12.93
2018-11-06T16:40:57.639Z,13.93
2018-11-06T16:43:26.146Z,12.57
2018-11-06T16:45:56.056Z,11.23
2018-11-06T16:48:24.618Z,11.03
2018-11-06T16:50:53.568Z,12.10
2018-11-06T16:53:22.364Z,10.60
2018-11-06T16:55:51.052Z,12.13
2018-11-06T16:58:19.656Z,11.00
2018-11-06T17:00:49.590Z,12.23
2018-11-06T17:03:18.063Z,14.27
2018-11-06T17:05:46.556Z,12.23
2018-11-06T17:08:15.104Z,14.67
2018-11-06T17:10:43.624Z,11.37
2018-11-06T17:13:12.124Z,10.93
2018-11-06T17:15:40.741Z,10.93
2018-11-06T17:18:09.254Z,12.80
2018-11-06T17:20:38.504Z,13.73
2018-11-06T17:23:07.745Z,10.63
2018-11-06T17:25:39.940Z,11.50
2018-11-06T17:28:08.550Z,10.87
2018-11-06T17:30:37.044Z,12.87
2018-11-06T17:33:05.611Z,14.30
2018-11-06T17:35:34.141Z,11.07
2018-11-06T17:38:03.464Z,10.63
2018-11-06T17:40:31.987Z,10.33
2018-11-06T17:43:00.629Z,14.63
2018-11-06T17:45:29.162Z,13.57
2018-11-06T17:47:58.085Z,11.97
2018-11-06T17:50:27.215Z,11.70
2018-11-06T17:52:56.754Z,11.93
2018-11-06T17:55:25.409Z,11.70
2018-11-06T17:57:53.933Z,11.83
2018-11-06T18:00:24.025Z,14.27
2018-11-06T18:02:52.764Z,12.50
2018-11-06T18:05:23.175Z,11.90
2018-11-06T18:07:51.820Z,13.10
2018-11-06T18:10:21.135Z,12.80
2018-11-06T18:12:49.639Z,12.67
2018-11-06T18:15:18.258Z,11.40
2018-11-06T18:17:47.059Z,11.23
2018-11-06T18:20:15.733Z,12.40
2018-11-06T18:22:44.960Z,12.00
2018-11-06T18:25:14.763Z,12.83
2018-11-06T18:27:43.399Z,13.50
2018-11-06T18:30:14.693Z,14.07
2018-11-06T18:32:43.288Z,12.77
2018-11-06T18:35:13.001Z,12.10
2018-11-06T18:37:41.758Z,12.17
2018-11-06T18:40:13.062Z,14.27
2018-11-06T18:42:42.811Z,16.27
2018-11-06T18:45:11.808Z,14.07
2018-11-06T18:47:40.414Z,13.20
2018-11-06T18:50:10.974Z,12.87
2018-11-06T18:52:47.320Z,14.47
2018-11-06T18:55:17.011Z,14.03
2018-11-06T18:57:45.751Z,13.63
2018-11-06T19:00:18.309Z,12.53
2018-11-06T19:02:47.813Z,15.47
2018-11-06T19:05:17.013Z,13.80
2018-11-06T19:07:45.730Z,14.00
2018-11-06T19:10:15.717Z,12.53
2018-11-06T19:12:44.730Z,13.53
2018-11-06T19:15:18.186Z,12.57
2018-11-06T19:17:47.394Z,12.97
2018-11-06T19:20:16.277Z,13.37
2018-11-06T19:22:44.943Z,14.30
2018-11-06T19:25:14.437Z,15.63
2018-11-06T19:27:43.171Z,15.83
2018-11-06T19:30:14.127Z,13.20
2018-11-06T19:32:42.636Z,13.27
2018-11-06T19:35:11.629Z,15.67
2018-11-06T19:37:41.412Z,15.13
2018-11-06T19:40:12.975Z,14.30
2018-11-06T19:42:42.390Z,15.10
2018-11-06T19:45:11.852Z,15.80
2018-11-06T19:47:40.588Z,14.77
2018-11-06T19:50:10.954Z,15.53
2018-11-06T19:52:39.848Z,16.67
2018-11-06T19:55:09.502Z,15.47
2018-11-06T19:57:38.192Z,17.07
2018-11-06T20:00:11.454Z,14.50
2018-11-06T20:02:40.929Z,20.27
2018-11-06T20:05:09.882Z,14.60
2018-11-06T20:07:38.853Z,18.27
2018-11-06T20:10:08.929Z,19.37
2018-11-06T20:12:37.844Z,16.10
2018-11-06T20:15:08.705Z,17.60
2018-11-06T20:17:38.163Z,19.70
2018-11-06T20:20:09.775Z,15.13
2018-11-06T20:22:38.680Z,16.33
2018-11-06T20:25:07.821Z,18.57
2018-11-06T20:27:37.391Z,18.47
2018-11-06T20:30:08.691Z,21.53
2018-11-06T20:32:37.514Z,17.70
2018-11-06T20:35:07.860Z,16.87
2018-11-06T20:37:36.679Z,17.60
2018-11-06T20:40:07.152Z,17.53
2018-11-06T20:42:36.082Z,16.67
2018-11-06T20:45:05.075Z,16.10
2018-11-06T20:47:34.576Z,18.40
2018-11-06T20:50:03.197Z,21.13
2018-11-06T20:52:32.008Z,16.23
2018-11-06T20:55:01.363Z,20.13
2018-11-06T20:57:29.997Z,18.40
2018-11-06T20:59:58.803Z,19.73
2018-11-06T21:02:27.460Z,18.53
2018-11-06T21:04:56.197Z,18.23
2018-11-06T21:07:24.908Z,16.70
2018-11-06T21:09:53.935Z,16.50
2018-11-06T21:12:23.796Z,17.27
2018-11-06T21:14:52.622Z,15.43
2018-11-06T21:17:21.524Z,18.17
2018-11-06T21:19:50.289Z,17.77
2018-11-06T21:22:18.755Z,16.50
2018-11-06T21:24:47.397Z,17.70
2018-11-06T21:27:16.786Z,18.93
2018-11-06T21:29:45.293Z,16.53
2018-11-06T21:32:14.886Z,18.60
2018-11-06T21:34:43.414Z,17.63
2018-11-06T21:37:13.191Z,16.63
2018-11-06T21:39:42.743Z,19.30
2018-11-06T21:42:11.454Z,16.33
2018-11-06T21:44:39.997Z,17.87
2018-11-06T21:47:08.663Z,20.27
2018-11-06T21:49:37.838Z,21.00
2018-11-06T21:52:07.064Z,16.97
2018-11-06T21:54:35.595Z,17.77
2018-11-06T21:57:04.167Z,18.30
2018-11-06T21:59:32.875Z,23.93
2018-11-06T22:02:02.180Z,19.73
2018-11-06T22:04:31.361Z,18.73
2018-11-06T22:06:59.895Z,17.10
2018-11-06T22:09:29.163Z,19.30
2018-11-06T22:11:57.767Z,16.77
2018-11-06T22:14:26.292Z,18.73
2018-11-06T22:16:54.791Z,17.40
2018-11-06T22:19:23.906Z,18.43
2018-11-06T22:21:53.150Z,16.90
2018-11-06T22:24:22.290Z,18.57
2018-11-06T22:26:50.870Z,16.97
2018-11-06T22:29:19.816Z,16.50
2018-11-06T22:31:48.371Z,16.23
2018-11-06T22:34:16.919Z,20.97
2018-11-06T22:36:45.436Z,21.53
2018-11-06T22:39:13.921Z,18.07
2018-11-06T22:41:42.540Z,18.77
2018-11-06T22:44:11.054Z,20.30
2018-11-06T22:46:40.335Z,16.40
2018-11-06T22:49:08.917Z,18.83
2018-11-06T22:51:37.429Z,18.57
2018-11-06T22:54:06.648Z,18.90
2018-11-06T22:56:35.131Z,19.47
2018-11-06T22:59:03.626Z,16.67
2018-11-06T23:01:32.195Z,18.40
2018-11-06T23:04:00.677Z,18.37
2018-11-06T23:06:29.267Z,17.27
2018-11-06T23:08:57.752Z,16.60
2018-11-06T23:11:27.478Z,17.67
2018-11-06T23:13:56.101Z,15.97
2018-11-06T23:16:25.143Z,18.87
2018-11-06T23:18:53.623Z,18.33
2018-11-06T23:21:22.647Z,16.70
2018-11-06T23:23:51.132Z,20.97
2018-11-06T23:26:19.766Z,16.30
2018-11-06T23:28:48.825Z,17.53
2018-11-06T23:31:17.418Z,19.57
2018-11-06T23:33:45.912Z,17.27
2018-11-06T23:36:15.157Z,17.10
2018-11-06T23:38:43.614Z,17.37
2018-11-06T23:41:12.251Z,17.03
2018-11-06T23:43:41.742Z,16.03
2018-11-06T23:46:10.191Z,15.10
2018-11-06T23:48:38.719Z,17.43
2018-11-06T23:51:07.238Z,15.87
2018-11-06T23:53:35.946Z,13.97
2018-11-06T23:56:05.675Z,17.77
2018-11-06T23:58:34.297Z,15.00
